createdAt,value
2022-12-02T00:00:28.908Z,15.53
2022-12-02T00:03:00.144Z,15.53
2022-12-02T00:05:34.542Z,15.40
2022-12-02T00:08:15.615Z,15.30
2022-12-02T00:10:45.578Z,16.83
2022-12-02T00:13:21.699Z,15.60
2022-12-02T00:15:52.331Z,15.70
2022-12-02T00:18:20.206Z,16.93
2022-12-02T00:20:48.981Z,14.43
2022-12-02T00:23:21.247Z,14.77
2022-12-02T00:25:54.525Z,15.47
2022-12-02T00:28:22.915Z,14.97
2022-12-02T00:30:50.918Z,15.67
2022-12-02T00:33:19.948Z,15.47
2022-12-02T00:35:48.249Z,15.77
2022-12-02T00:38:16.662Z,15.67
2022-12-02T00:40:46.056Z,14.27
2022-12-02T00:43:31.440Z,14.67
2022-12-02T00:46:17.415Z,15.40
2022-12-02T00:48:45.391Z,15.57
2022-12-02T00:51:13.245Z,14.77
2022-12-02T00:53:41.401Z,14.60
2022-12-02T00:56:11.156Z,15.57
2022-12-02T00:58:39.487Z,14.43
2022-12-02T01:01:07.491Z,14.60
2022-12-02T01:03:44.215Z,14.60
2022-12-02T01:06:14.305Z,14.43
2022-12-02T01:08:42.971Z,14.30
2022-12-02T01:11:12.673Z,14.53
2022-12-02T01:13:43.323Z,14.13
2022-12-02T01:16:11.289Z,13.90
2022-12-02T01:18:39.571Z,14.40
2022-12-02T01:21:08.667Z,14.80
2022-12-02T01:23:37.540Z,14.27
2022-12-02T01:26:05.562Z,13.70
2022-12-02T01:28:36.434Z,14.87
2022-12-02T01:31:04.882Z,14.47
2022-12-02T01:33:32.914Z,13.90
2022-12-02T01:36:00.815Z,15.00
2022-12-02T01:38:57.447Z,14.43
2022-12-02T01:41:42.754Z,13.80
2022-12-02T01:44:31.005Z,14.87
2022-12-02T01:47:14.039Z,14.80
2022-12-02T01:49:48.821Z,14.37
2022-12-02T01:52:20.627Z,14.50
2022-12-02T01:54:50.964Z,13.83
2022-12-02T01:57:30.871Z,13.53
2022-12-02T02:00:03.275Z,13.73
2022-12-02T02:02:42.912Z,13.33
2022-12-02T02:05:20.430Z,13.27
2022-12-02T02:07:54.583Z,13.47
2022-12-02T02:10:26.012Z,13.50
2022-12-02T02:12:55.833Z,13.67
2022-12-02T02:15:25.548Z,13.47
2022-12-02T02:17:58.442Z,13.47
2022-12-02T02:20:29.199Z,13.37
2022-12-02T02:23:08.941Z,13.77
2022-12-02T02:25:46.740Z,14.10
2022-12-02T02:28:17.346Z,13.73
2022-12-02T02:30:45.793Z,14.77
2022-12-02T02:33:16.431Z,13.03
2022-12-02T02:35:46.265Z,13.93
2022-12-02T02:38:18.286Z,14.23
2022-12-02T02:40:48.636Z,14.33
2022-12-02T02:43:19.472Z,13.47
2022-12-02T02:45:48.374Z,14.70
2022-12-02T02:48:18.492Z,14.40
2022-12-02T02:50:48.421Z,15.20
2022-12-02T02:53:20.285Z,14.90
2022-12-02T02:55:49.761Z,13.73
2022-12-02T02:58:20.851Z,14.97
2022-12-02T03:00:54.350Z,14.73
2022-12-02T03:03:25.112Z,15.30
2022-12-02T03:05:55.788Z,13.90
2022-12-02T03:08:25.215Z,16.90
2022-12-02T03:10:58.459Z,15.13
2022-12-02T03:13:27.270Z,15.90
2022-12-02T03:15:55.439Z,14.13
2022-12-02T03:18:23.435Z,14.87
2022-12-02T03:20:51.430Z,15.33
2022-12-02T03:23:19.324Z,14.77
2022-12-02T03:25:47.382Z,15.13
2022-12-02T03:28:17.321Z,14.07
2022-12-02T03:30:45.804Z,13.90
2022-12-02T03:33:14.912Z,14.30
2022-12-02T03:35:43.163Z,15.07
2022-12-02T03:38:11.312Z,15.00
2022-12-02T03:40:39.419Z,14.20
2022-12-02T03:43:07.546Z,15.00
2022-12-02T03:45:36.904Z,15.27
2022-12-02T03:48:07.485Z,15.00
2022-12-02T03:50:35.519Z,15.53
2022-12-02T03:53:04.360Z,15.73
2022-12-02T03:55:32.437Z,15.13
2022-12-02T03:58:06.016Z,15.37
2022-12-02T04:00:34.291Z,14.60
2022-12-02T04:03:06.627Z,15.43
2022-12-02T04:05:35.145Z,15.90
2022-12-02T04:08:03.567Z,14.10
2022-12-02T04:10:31.693Z,14.07
2022-12-02T04:13:00.644Z,16.23
2022-12-02T04:15:28.812Z,15.17
2022-12-02T04:17:56.665Z,15.17
2022-12-02T04:26:45.082Z,14.63
2022-12-02T04:29:13.387Z,15.50
2022-12-02T04:31:41.222Z,15.30
2022-12-02T04:34:09.160Z,14.67
2022-12-02T04:36:37.035Z,14.63
2022-12-02T04:39:06.037Z,15.07
2022-12-02T04:41:33.964Z,15.67
2022-12-02T04:44:03.769Z,15.77
2022-12-02T04:46:31.723Z,15.67
2022-12-02T04:48:59.826Z,15.53
2022-12-02T04:51:27.839Z,14.97
2022-12-02T04:53:55.863Z,15.23
2022-12-02T04:56:23.683Z,14.50
2022-12-02T04:58:51.858Z,15.23
2022-12-02T05:01:21.311Z,15.60
2022-12-02T05:03:49.467Z,15.77
2022-12-02T05:06:17.383Z,14.83
2022-12-02T05:08:45.554Z,16.10
2022-12-02T05:11:13.916Z,16.67
2022-12-02T05:32:36.093Z,17.67
2022-12-02T05:35:04.095Z,17.57
2022-12-02T05:37:32.105Z,17.73
2022-12-02T05:40:00.293Z,17.50
2022-12-02T05:42:29.089Z,16.80
2022-12-02T05:45:06.062Z,17.07
2022-12-02T05:47:45.330Z,16.83
2022-12-02T05:50:15.616Z,18.47
2022-12-02T05:52:46.147Z,18.10
2022-12-02T05:55:17.027Z,18.10
2022-12-02T05:57:53.696Z,18.70
2022-12-02T06:00:28.713Z,18.87
2022-12-02T06:03:33.394Z,17.93
2022-12-02T06:06:03.697Z,18.70
2022-12-02T06:08:39.855Z,18.50
2022-12-02T06:11:27.672Z,18.43
2022-12-02T06:14:03.332Z,18.57
2022-12-02T06:16:50.021Z,19.97
2022-12-02T06:28:47.391Z,20.97
2022-12-02T06:31:18.978Z,19.73
2022-12-02T06:33:49.750Z,20.30
2022-12-02T06:36:21.996Z,21.43
2022-12-02T06:38:52.772Z,20.17
2022-12-02T06:41:23.208Z,19.97
2022-12-02T06:44:10.269Z,21.30
2022-12-02T06:46:38.719Z,21.57
2022-12-02T06:49:17.498Z,21.17
2022-12-02T06:51:45.584Z,20.90
2022-12-02T06:54:22.409Z,21.20
2022-12-02T06:56:51.723Z,20.43
2022-12-02T06:59:24.307Z,21.20
2022-12-02T07:01:55.864Z,21.80
2022-12-02T07:04:32.096Z,21.43
2022-12-02T07:07:02.705Z,22.73
2022-12-02T07:09:38.230Z,23.27
2022-12-02T07:12:14.046Z,22.77
2022-12-02T07:14:47.593Z,23.00
2022-12-02T07:17:23.145Z,22.27
2022-12-02T07:19:58.407Z,21.87
2022-12-02T07:22:31.740Z,23.00
2022-12-02T07:25:11.990Z,23.37
2022-12-02T07:27:42.490Z,22.30
2022-12-02T07:30:31.223Z,24.23
2022-12-02T07:32:59.767Z,22.33
2022-12-02T07:35:28.225Z,23.10
2022-12-02T07:37:57.884Z,23.13
2022-12-02T07:40:26.761Z,22.57
2022-12-02T07:42:54.724Z,24.00
2022-12-02T07:45:25.336Z,23.77
2022-12-02T07:47:54.019Z,22.23
2022-12-02T07:50:21.918Z,23.87
2022-12-02T07:52:49.946Z,22.63
2022-12-02T07:55:24.385Z,22.83
2022-12-02T07:57:54.939Z,23.13
2022-12-02T08:00:25.293Z,22.57
2022-12-02T08:02:55.592Z,25.00
2022-12-02T08:05:24.267Z,23.80
2022-12-02T08:07:52.575Z,25.03
2022-12-02T08:10:20.568Z,24.93
2022-12-02T08:12:48.545Z,24.77
2022-12-02T08:15:16.951Z,23.40
2022-12-02T08:17:46.265Z,24.20
2022-12-02T08:20:14.702Z,24.27
2022-12-02T08:22:42.614Z,23.20
2022-12-02T08:25:11.448Z,24.67
2022-12-02T08:27:44.900Z,23.50
2022-12-02T08:30:15.488Z,24.53
2022-12-02T08:32:43.957Z,25.87
2022-12-02T08:35:14.257Z,25.07
2022-12-02T08:37:42.221Z,24.43
2022-12-02T09:09:37.359Z,23.40
2022-12-02T09:12:05.840Z,24.80
2022-12-02T09:14:33.831Z,23.73
2022-12-02T09:17:03.425Z,23.67
2022-12-02T09:19:31.451Z,26.23
2022-12-02T09:21:59.356Z,25.10
2022-12-02T09:24:27.352Z,22.70
2022-12-02T09:26:56.939Z,23.93
2022-12-02T09:29:26.754Z,23.13
2022-12-02T09:31:54.646Z,24.73
2022-12-02T09:34:22.560Z,23.90
2022-12-02T09:36:50.631Z,24.00
2022-12-02T09:39:18.702Z,25.17
2022-12-02T09:41:46.950Z,25.40
2022-12-02T09:44:16.622Z,24.03
2022-12-02T09:46:44.676Z,23.37
2022-12-02T09:49:12.884Z,23.23
2022-12-02T09:51:40.972Z,22.80
2022-12-02T09:54:10.299Z,24.70
2022-12-02T09:56:40.308Z,21.57
2022-12-02T09:59:15.163Z,23.27
2022-12-02T10:01:47.319Z,23.07
2022-12-02T10:04:20.528Z,22.23
2022-12-02T10:06:49.326Z,22.90
2022-12-02T10:09:21.494Z,23.50
2022-12-02T10:11:53.194Z,23.00
2022-12-02T10:14:22.153Z,22.57
2022-12-02T10:16:53.147Z,22.03
2022-12-02T10:19:22.483Z,22.67
2022-12-02T10:21:55.681Z,20.70
2022-12-02T10:24:37.843Z,21.90
2022-12-02T10:27:06.239Z,22.13
2022-12-02T10:29:34.714Z,22.47
2022-12-02T10:32:06.857Z,23.03
2022-12-02T10:34:36.722Z,21.30
2022-12-02T10:37:18.783Z,21.50
2022-12-02T10:39:47.503Z,22.43
2022-12-02T10:42:21.849Z,21.40
2022-12-02T10:45:11.445Z,19.47
2022-12-02T10:47:44.053Z,18.73
2022-12-02T10:50:19.563Z,19.10
2022-12-02T10:52:50.096Z,16.57
2022-12-02T10:58:30.364Z,19.07
2022-12-02T11:01:00.287Z,16.77
2022-12-02T11:03:29.977Z,15.97
2022-12-02T11:06:00.146Z,15.87
2022-12-02T11:08:30.425Z,15.63
2022-12-02T11:11:13.101Z,11.10
2022-12-02T11:13:55.194Z,12.80
2022-12-02T11:16:54.084Z,9.73
2022-12-02T11:19:46.814Z,7.77
2022-12-02T11:23:03.758Z,4.33
2022-12-02T11:25:51.958Z,5.00
2022-12-02T11:28:59.886Z,4.90
2022-12-02T11:31:28.716Z,5.20
2022-12-02T11:34:24.692Z,5.33
2022-12-02T11:37:30.110Z,5.30
2022-12-02T11:40:01.949Z,4.97
2022-12-02T11:42:31.477Z,4.80
2022-12-02T11:45:34.106Z,4.73
2022-12-02T11:48:02.578Z,5.63
2022-12-02T11:50:37.722Z,5.47
2022-12-02T11:53:14.745Z,4.90
2022-12-02T11:55:46.065Z,5.90
2022-12-02T11:58:20.345Z,5.77
2022-12-02T12:01:07.267Z,6.20
2022-12-02T12:03:35.912Z,6.23
2022-12-02T12:08:59.329Z,5.63
2022-12-02T12:11:32.377Z,5.97
2022-12-02T12:14:02.598Z,6.70
2022-12-02T12:16:33.612Z,6.23
2022-12-02T12:19:04.657Z,6.60
2022-12-02T12:21:45.607Z,6.33
2022-12-02T12:24:31.257Z,6.27
2022-12-02T12:27:14.261Z,7.33
2022-12-02T12:29:43.235Z,5.83
2022-12-02T12:32:16.399Z,6.40
2022-12-02T12:34:45.463Z,7.00
2022-12-02T12:37:15.154Z,6.70
2022-12-02T12:39:53.003Z,6.57
2022-12-02T12:42:25.566Z,6.43
2022-12-02T12:44:58.284Z,6.40
2022-12-02T12:47:30.513Z,6.40
2022-12-02T12:50:07.235Z,5.90
2022-12-02T12:52:37.260Z,7.10
2022-12-02T12:55:10.425Z,6.87
2022-12-02T12:57:46.209Z,7.27
2022-12-02T13:00:16.215Z,7.20
2022-12-02T13:02:45.795Z,7.17
2022-12-02T13:05:15.268Z,7.80
2022-12-02T13:10:46.724Z,8.50
2022-12-02T13:13:16.191Z,8.50
2022-12-02T13:25:32.741Z,7.90
2022-12-02T13:28:00.762Z,8.53
2022-12-02T13:30:30.191Z,8.93
2022-12-02T13:42:23.953Z,9.30
2022-12-02T13:44:52.867Z,9.30
2022-12-02T13:47:22.570Z,9.30
2022-12-02T13:49:50.950Z,9.50
2022-12-02T13:52:19.093Z,10.23
2022-12-02T13:54:47.307Z,9.90
2022-12-02T13:57:15.262Z,9.77
2022-12-02T13:59:43.099Z,9.43
2022-12-02T14:02:12.585Z,8.93
2022-12-02T14:04:42.144Z,10.17
2022-12-02T14:07:10.385Z,9.97
2022-12-02T14:09:38.203Z,9.50
2022-12-02T14:12:06.520Z,9.10
2022-12-02T14:14:34.520Z,8.80
2022-12-02T14:17:02.479Z,8.93
2022-12-02T14:19:30.502Z,9.40
2022-12-02T14:21:59.830Z,9.13
2022-12-02T14:24:27.872Z,9.50
2022-12-02T14:26:55.759Z,9.00
2022-12-02T14:29:23.849Z,10.10
2022-12-02T14:31:51.712Z,11.47
2022-12-02T14:34:19.782Z,9.30
2022-12-02T14:36:47.681Z,9.80
2022-12-02T14:39:16.933Z,9.20
2022-12-02T14:41:44.767Z,9.80
2022-12-02T14:44:12.941Z,9.50
2022-12-02T14:46:45.410Z,9.47
2022-12-02T14:52:01.294Z,11.30
2022-12-02T14:54:30.645Z,9.03
2022-12-02T14:56:58.804Z,10.93
2022-12-02T14:59:26.743Z,10.80
2022-12-02T15:01:54.863Z,9.77
2022-12-02T15:04:22.899Z,9.93
2022-12-02T15:06:50.980Z,11.10
2022-12-02T15:09:18.866Z,9.67
2022-12-02T15:11:47.953Z,9.60
2022-12-02T15:14:15.713Z,9.37
2022-12-02T15:16:43.644Z,10.70
2022-12-02T15:19:11.647Z,10.33
2022-12-02T15:21:39.492Z,10.63
2022-12-02T15:24:08.204Z,9.33
2022-12-02T15:26:36.028Z,10.03
2022-12-02T15:29:05.204Z,9.10
2022-12-02T15:31:33.031Z,9.47
2022-12-02T15:34:00.942Z,9.63
2022-12-02T15:36:28.848Z,9.83
2022-12-02T15:38:56.671Z,8.87
2022-12-02T15:41:24.451Z,9.60
2022-12-02T15:43:54.099Z,9.63
2022-12-02T15:46:24.276Z,9.33
2022-12-02T15:48:52.325Z,9.63
2022-12-02T15:51:21.023Z,9.40
2022-12-02T15:53:51.293Z,9.30
2022-12-02T15:56:19.110Z,9.30
2022-12-02T15:58:50.026Z,8.83
2022-12-02T16:01:18.159Z,8.30
2022-12-02T16:03:47.409Z,8.77
2022-12-02T16:06:15.152Z,8.57
2022-12-02T16:08:42.981Z,9.17
2022-12-02T16:11:11.783Z,8.97
2022-12-02T16:13:39.950Z,9.13
2022-12-02T16:16:08.124Z,9.47
2022-12-02T16:18:36.439Z,8.50
2022-12-02T16:21:05.655Z,9.10
2022-12-02T16:23:33.432Z,8.67
2022-12-02T16:26:01.206Z,10.00
2022-12-02T16:28:28.980Z,8.27
2022-12-02T16:30:56.709Z,9.00
2022-12-02T16:33:24.508Z,8.73
2022-12-02T16:35:52.269Z,8.53
2022-12-02T16:38:21.562Z,8.80
2022-12-02T16:40:49.279Z,9.37
2022-12-02T16:43:17.029Z,9.40
2022-12-02T16:45:44.812Z,8.33
2022-12-02T16:48:12.603Z,9.73
2022-12-02T16:50:40.374Z,8.93
2022-12-02T16:53:08.326Z,8.57
2022-12-02T16:55:37.384Z,8.57
2022-12-02T16:58:05.851Z,8.20
2022-12-02T17:00:33.584Z,8.40
2022-12-02T17:03:01.426Z,8.20
2022-12-02T17:05:29.251Z,8.83
2022-12-02T17:07:57.205Z,7.97
2022-12-02T17:10:24.970Z,8.60
2022-12-02T17:12:54.442Z,9.17
2022-12-02T17:15:25.471Z,8.37
2022-12-02T17:17:53.590Z,9.00
2022-12-02T17:20:21.466Z,8.60
2022-12-02T17:22:49.546Z,8.73
2022-12-02T17:25:17.577Z,8.90
2022-12-02T17:27:45.512Z,8.50
2022-12-02T17:30:15.158Z,7.90
2022-12-02T17:32:43.019Z,9.57
2022-12-02T17:35:11.430Z,9.13
2022-12-02T17:37:39.855Z,8.03
2022-12-02T17:40:09.730Z,8.87
2022-12-02T17:42:38.178Z,9.10
2022-12-02T17:45:07.847Z,9.37
2022-12-02T17:47:37.822Z,9.23
2022-12-02T17:50:06.887Z,8.70
2022-12-02T17:52:35.917Z,8.07
2022-12-02T17:55:10.335Z,9.03
2022-12-02T17:57:41.601Z,9.00
2022-12-02T18:00:11.360Z,8.53
2022-12-02T18:02:41.520Z,9.27
2022-12-02T18:05:10.415Z,9.33
2022-12-02T18:07:38.848Z,10.73
2022-12-02T18:10:08.166Z,9.73
2022-12-02T18:12:36.379Z,8.97
2022-12-02T18:15:05.108Z,13.80
2022-12-02T18:17:33.790Z,14.60
2022-12-02T18:20:03.931Z,14.90
2022-12-02T18:22:32.241Z,15.23
2022-12-02T18:25:00.709Z,12.17
2022-12-02T18:27:29.722Z,10.63
2022-12-02T18:29:58.485Z,10.83
2022-12-02T18:32:27.048Z,11.33
2022-12-02T18:34:55.557Z,10.00
2022-12-02T18:37:25.344Z,9.17
2022-12-02T18:39:53.590Z,9.03
2022-12-02T18:42:21.914Z,10.20
2022-12-02T18:44:50.968Z,9.93
2022-12-02T18:47:19.563Z,10.37
2022-12-02T18:49:47.998Z,9.30
2022-12-02T18:52:16.386Z,9.73
2022-12-02T18:54:46.255Z,8.73
2022-12-02T18:57:14.582Z,9.03
2022-12-02T18:59:42.790Z,8.13
2022-12-02T19:02:11.910Z,8.57
2022-12-02T19:04:40.222Z,9.07
2022-12-02T19:07:08.535Z,8.73
2022-12-02T19:12:47.560Z,8.80
2022-12-02T19:15:16.223Z,8.73
2022-12-02T19:17:44.650Z,8.70
2022-12-02T19:20:13.722Z,9.17
2022-12-02T19:22:42.470Z,8.80
2022-12-02T19:25:10.841Z,9.20
2022-12-02T19:30:29.393Z,8.93
2022-12-02T19:32:59.977Z,9.57
2022-12-02T19:35:28.996Z,8.40
2022-12-02T19:38:04.093Z,9.63
2022-12-02T19:40:39.371Z,8.63
2022-12-02T19:43:12.819Z,8.17
2022-12-02T19:45:43.865Z,8.17
2022-12-02T19:48:12.420Z,8.57
2022-12-02T19:50:40.646Z,8.50
2022-12-02T19:53:08.968Z,8.87
2022-12-02T19:55:37.184Z,8.47
2022-12-02T19:58:05.606Z,8.00
2022-12-02T20:00:35.457Z,8.90
2022-12-02T20:03:05.756Z,8.50
2022-12-02T20:05:34.315Z,9.03
2022-12-02T20:08:02.753Z,8.70
2022-12-02T20:10:30.998Z,8.70
2022-12-02T20:12:59.141Z,8.53
2022-12-02T20:15:27.376Z,8.27
2022-12-02T20:17:55.615Z,8.40
2022-12-02T20:20:25.542Z,8.53
2022-12-02T20:22:54.767Z,8.50
2022-12-02T20:25:23.233Z,8.03
2022-12-02T20:30:51.836Z,8.17
2022-12-02T20:33:20.023Z,7.70
2022-12-02T20:35:49.360Z,7.70
2022-12-02T20:38:17.369Z,8.03
2022-12-02T20:40:45.417Z,7.80
2022-12-02T20:43:13.319Z,7.97
2022-12-02T20:45:41.892Z,7.77
2022-12-02T20:48:10.271Z,7.60
2022-12-02T20:50:39.949Z,7.87
2022-12-02T20:53:10.307Z,7.00
2022-12-02T20:55:38.539Z,7.63
2022-12-02T20:58:08.390Z,7.70
2022-12-02T21:00:36.772Z,7.83
2022-12-02T21:03:05.214Z,8.27
2022-12-02T21:05:35.619Z,8.00
2022-12-02T21:08:03.969Z,8.13
2022-12-02T21:10:34.417Z,8.47
2022-12-02T21:19:15.022Z,8.10
2022-12-02T21:21:45.400Z,9.73
2022-12-02T21:24:13.751Z,10.70
2022-12-02T21:26:43.404Z,11.50
2022-12-02T21:29:11.631Z,10.50
2022-12-02T21:31:42.389Z,8.63
2022-12-02T21:34:10.367Z,9.20
2022-12-02T21:36:39.158Z,8.77
2022-12-02T21:39:07.266Z,8.43
2022-12-02T21:41:35.237Z,7.80
2022-12-02T21:44:06.092Z,8.00
2022-12-02T21:46:34.168Z,7.93
2022-12-02T21:49:02.524Z,8.00
2022-12-02T21:51:30.553Z,7.33
2022-12-02T21:53:58.725Z,7.10
2022-12-02T21:56:36.167Z,7.60
2022-12-02T21:59:06.327Z,7.70
2022-12-02T22:01:42.241Z,7.67
2022-12-02T22:04:15.729Z,7.20
2022-12-02T22:06:45.173Z,7.93
2022-12-02T22:09:13.922Z,7.73
2022-12-02T22:11:41.738Z,6.93
2022-12-02T22:14:10.824Z,7.87
2022-12-02T22:16:38.648Z,8.03
2022-12-02T22:19:10.241Z,7.90
2022-12-02T22:21:41.054Z,8.07
2022-12-02T22:24:09.053Z,7.83
2022-12-02T22:26:36.745Z,7.73
2022-12-02T22:29:06.841Z,7.93
2022-12-02T22:31:36.491Z,7.60
2022-12-02T22:34:04.462Z,7.03
2022-12-02T22:36:32.301Z,8.43
2022-12-02T22:39:00.359Z,8.27
2022-12-02T22:41:28.324Z,9.50
2022-12-02T22:43:56.154Z,9.67
2022-12-02T22:46:24.205Z,8.20
2022-12-02T22:48:53.515Z,7.73
2022-12-02T22:51:22.304Z,7.23
2022-12-02T22:53:50.617Z,6.67
2022-12-02T22:56:18.515Z,7.90
2022-12-02T22:58:46.822Z,7.50
2022-12-02T23:01:15.062Z,7.33
2022-12-02T23:03:42.986Z,5.87
2022-12-02T23:06:12.488Z,5.97
2022-12-02T23:08:40.445Z,5.83
2022-12-02T23:11:08.507Z,5.73
2022-12-02T23:13:36.432Z,5.17
2022-12-02T23:16:04.385Z,5.20
2022-12-02T23:18:32.526Z,5.20
2022-12-02T23:21:00.422Z,5.23
2022-12-02T23:23:29.764Z,4.90
2022-12-02T23:25:57.682Z,4.50
2022-12-02T23:28:25.712Z,5.07
2022-12-02T23:30:53.656Z,5.27
2022-12-02T23:33:23.368Z,4.83
2022-12-02T23:35:51.548Z,4.80
2022-12-02T23:38:19.614Z,5.07
2022-12-02T23:40:48.951Z,5.20
2022-12-02T23:43:16.975Z,4.80
2022-12-02T23:45:44.887Z,5.20
2022-12-02T23:48:12.715Z,5.00
2022-12-02T23:50:40.623Z,5.50
2022-12-02T23:53:08.502Z,5.90
2022-12-02T23:55:36.813Z,5.37
2022-12-02T23:58:06.017Z,5.63
